Time;durP1;ratioP1;P1;durP2;ratioP2;P2;SDS_P1;SDS_P2;PMS_P1;PMS_P2;Temp;Humidity;BMP_temperature;BMP_pressure;BME280_temperature;BME280_humidity;BME280_pressure;Samples;Min_cycle;Max_cycle;Signal;HPM_P1;HPM_P2
2023/01/08 00:00:57;;;;;;;7.22;1.77;;;;;;;8.56;100.00;100112.25;5034501;28;20524;-70
2023/01/08 00:03:22;;;;;;;19.17;1.75;;;;;;;8.61;100.00;100104.41;5028676;28;20130;-69
2023/01/08 00:05:48;;;;;;;11.10;1.35;;;;;;;8.62;100.00;100108.81;5030654;28;20116;-70
2023/01/08 00:08:13;;;;;;;6.15;1.00;;;;;;;8.67;100.00;100098.34;5032587;28;20090;-68
2023/01/08 00:10:39;;;;;;;9.65;1.10;;;;;;;8.71;100.00;100108.06;5045236;28;20033;-70
2023/01/08 00:13:05;;;;;;;12.93;1.70;;;;;;;8.70;100.00;100106.28;5031417;28;20029;-71
2023/01/08 00:15:31;;;;;;;4.68;1.10;;;;;;;8.71;100.00;100103.69;5031615;28;20423;-70
2023/01/08 00:17:57;;;;;;;8.05;1.40;;;;;;;8.71;100.00;100106.31;5030211;28;20122;-70
2023/01/08 00:20:23;;;;;;;5.95;0.88;;;;;;;8.72;100.00;100100.19;5033589;28;20041;-69
2023/01/08 00:22:49;;;;;;;8.50;1.60;;;;;;;8.72;100.00;100100.19;5032479;28;20385;-70
2023/01/08 00:25:15;;;;;;;4.10;1.25;;;;;;;8.71;100.00;100080.06;5026916;28;20025;-69
2023/01/08 00:27:40;;;;;;;6.43;1.83;;;;;;;8.72;100.00;100084.47;5033635;28;20116;-69
2023/01/08 00:30:06;;;;;;;8.35;1.63;;;;;;;8.74;100.00;100058.25;5032669;28;20163;-70
2023/01/08 00:32:31;;;;;;;8.07;2.03;;;;;;;8.74;100.00;100061.75;5032069;28;20037;-69
2023/01/08 00:34:57;;;;;;;4.78;1.80;;;;;;;8.78;100.00;100055.66;5030139;28;22058;-70
2023/01/08 00:37:23;;;;;;;6.75;1.73;;;;;;;8.80;100.00;100060.06;5033403;28;20049;-70
2023/01/08 00:39:49;;;;;;;3.67;1.70;;;;;;;8.76;100.00;100053.88;5036520;28;20022;-70
2023/01/08 00:42:14;;;;;;;7.00;1.90;;;;;;;8.79;100.00;100053.94;5033861;28;20035;-70
2023/01/08 00:44:39;;;;;;;11.07;1.77;;;;;;;8.81;100.00;100038.22;5031500;28;20033;-68
2023/01/08 00:47:05;;;;;;;5.28;1.70;;;;;;;8.84;100.00;100044.34;5032602;28;20029;-70
2023/01/08 00:49:30;;;;;;;7.72;2.15;;;;;;;8.83;100.00;100049.59;5031624;28;20032;-70
2023/01/08 00:51:55;;;;;;;8.27;1.77;;;;;;;8.86;100.00;100040.00;5032329;28;20049;-69
2023/01/08 00:54:21;;;;;;;7.35;1.80;;;;;;;8.88;100.00;100043.53;5030643;28;20025;-70
2023/01/08 00:56:46;;;;;;;8.48;2.20;;;;;;;8.89;100.00;100040.03;5031624;28;20079;-70
2023/01/08 00:59:12;;;;;;;9.77;2.13;;;;;;;8.89;100.00;100040.03;5030612;28;20096;-71
2023/01/08 01:01:37;;;;;;;12.23;2.53;;;;;;;8.87;100.00;100033.91;5033897;28;20021;-71
2023/01/08 01:04:03;;;;;;;14.05;1.98;;;;;;;8.87;100.00;100033.00;5037816;28;20025;-71
2023/01/08 01:06:28;;;;;;;4.75;1.65;;;;;;;8.82;100.00;100037.31;5036126;28;20029;-70
2023/01/08 01:08:55;;;;;;;9.45;1.85;;;;;;;8.78;100.00;100031.19;5029995;28;20028;-69
2023/01/08 01:11:26;;;;;;;9.90;1.58;;;;;;;8.77;100.00;100032.91;5032167;28;20032;-71
2023/01/08 01:13:53;;;;;;;13.73;2.30;;;;;;;8.78;100.00;100032.06;5032271;28;20076;-71
2023/01/08 01:16:19;;;;;;;14.98;2.25;;;;;;;8.73;100.00;100032.88;5032977;28;20404;-70
2023/01/08 01:18:44;;;;;;;9.52;2.13;;;;;;;8.73;100.00;100025.88;5032222;28;20029;-70
2023/01/08 01:21:16;;;;;;;8.25;2.30;;;;;;;8.73;100.00;100031.13;5031120;28;20132;-72
2023/01/08 01:23:42;;;;;;;6.65;2.03;;;;;;;8.76;100.00;100031.19;5031401;28;20033;-69
2023/01/08 01:26:14;;;;;;;10.82;2.00;;;;;;;8.72;100.00;100037.25;5030801;28;20374;-70
2023/01/08 01:28:40;;;;;;;8.68;1.92;;;;;;;8.70;100.00;100035.47;5031372;28;20032;-70
2023/01/08 01:31:05;;;;;;;7.95;2.35;;;;;;;8.71;100.00;100035.47;5032268;28;20033;-70
2023/01/08 01:33:31;;;;;;;5.93;1.60;;;;;;;8.67;100.00;100036.31;5031891;28;20021;-70
2023/01/08 01:36:00;;;;;;;8.13;2.33;;;;;;;8.66;100.00;100034.53;5027307;28;20040;-68
2023/01/08 01:38:26;;;;;;;10.93;2.67;;;;;;;8.63;100.00;100031.91;5030922;28;20025;-70
2023/01/08 01:40:52;;;;;;;9.00;2.50;;;;;;;8.60;100.00;100031.88;5032078;28;20025;-70
2023/01/08 01:43:33;;;;;;;9.68;2.25;;;;;;;8.58;100.00;100031.81;5032293;28;20378;-70
2023/01/08 01:45:59;;;;;;;8.00;2.10;;;;;;;8.54;100.00;100048.38;5035325;28;20056;-70
2023/01/08 01:48:24;;;;;;;7.05;2.38;;;;;;;8.50;100.00;100037.84;5031832;28;20151;-70
2023/01/08 01:50:53;;;;;;;11.93;2.03;;;;;;;8.45;100.00;100032.56;5029010;28;20033;-68
2023/01/08 01:53:27;;;;;;;7.60;1.92;;;;;;;8.39;100.00;100038.56;5038733;28;20029;-70
2023/01/08 01:55:52;;;;;;;4.75;1.42;;;;;;;8.34;100.00;100040.28;5037789;28;20461;-68
2023/01/08 01:58:23;;;;;;;8.10;1.92;;;;;;;8.33;100.00;100043.75;5031316;28;20030;-69
2023/01/08 02:00:50;;;;;;;5.70;1.92;;;;;;;8.34;100.00;100035.03;5055849;28;20071;-71
2023/01/08 02:03:24;;;;;;;11.30;1.58;;;;;;;8.32;100.00;100047.22;5027648;28;20160;-70
2023/01/08 02:05:58;;;;;;;9.15;1.95;;;;;;;8.22;100.00;100040.09;5030179;28;20104;-70
2023/01/08 02:08:39;;;;;;;8.02;1.92;;;;;;;8.25;100.00;100037.53;5029683;28;20527;-71
2023/01/08 02:11:20;;;;;;;5.63;1.40;;;;;;;8.28;100.00;100034.94;5029836;28;20025;-71
2023/01/08 02:13:54;;;;;;;6.45;1.52;;;;;;;8.27;100.00;100025.31;5033289;28;20040;-71
2023/01/08 02:16:40;;;;;;;6.65;1.30;;;;;;;8.19;100.00;100026.94;5030243;28;20017;-69
2023/01/08 02:19:44;;;;;;;10.38;1.63;;;;;;;8.18;100.00;100022.56;5029817;28;20032;-69
2023/01/08 02:22:35;;;;;;;6.97;1.27;;;;;;;8.16;100.00;100024.31;5030778;28;20084;-70
2023/01/08 02:25:09;;;;;;;6.88;1.65;;;;;;;8.14;100.00;100031.25;5030893;28;20021;-70
2023/01/08 02:27:39;;;;;;;6.28;1.60;;;;;;;8.12;100.00;100022.50;5033108;28;20022;-69
2023/01/08 02:30:06;;;;;;;7.68;1.48;;;;;;;8.14;100.00;100026.00;5029575;28;20032;-70
2023/01/08 02:32:41;;;;;;;5.43;1.55;;;;;;;8.08;100.00;100032.94;5028674;28;20130;-69
2023/01/08 02:35:09;;;;;;;5.47;1.35;;;;;;;8.07;100.00;100031.19;5028032;28;20056;-71
2023/01/08 02:37:36;;;;;;;9.75;1.52;;;;;;;8.14;100.00;100026.00;5023288;28;20025;-69
2023/01/08 02:40:26;;;;;;;6.97;1.70;;;;;;;8.10;100.00;100014.63;5031484;28;20104;-70
2023/01/08 02:43:13;;;;;;;8.02;1.63;;;;;;;8.08;100.00;100009.38;5030465;28;20385;-69
2023/01/08 02:45:50;;;;;;;7.25;1.65;;;;;;;8.05;100.00;100000.56;5050163;28;20044;-71
2023/01/08 02:48:32;;;;;;;12.13;1.85;;;;;;;8.01;100.00;100014.50;5027828;28;20028;-70
2023/01/08 02:51:07;;;;;;;12.73;2.17;;;;;;;8.02;100.00;100017.13;5033980;28;20025;-69
2023/01/08 02:53:38;;;;;;;7.00;2.08;;;;;;;8.04;100.00;100015.41;5034760;28;20029;-70
2023/01/08 02:56:13;;;;;;;9.75;1.60;;;;;;;8.05;100.00;100011.94;5034305;28;20451;-71
2023/01/08 02:58:40;;;;;;;6.80;1.95;;;;;;;8.08;100.00;100011.09;5049696;28;20025;-70
2023/01/08 03:01:08;;;;;;;9.63;1.63;;;;;;;8.09;100.00;100013.72;5035008;28;20037;-70
2023/01/08 03:03:38;;;;;;;8.10;1.55;;;;;;;8.15;100.00;100025.16;5032489;28;20037;-70
2023/01/08 03:06:07;;;;;;;9.00;1.30;;;;;;;8.17;100.00;100026.94;5044517;28;20062;-69
2023/01/08 03:08:37;;;;;;;10.73;1.67;;;;;;;8.18;100.00;100025.19;5030910;28;20036;-70
2023/01/08 03:11:05;;;;;;;6.88;1.40;;;;;;;8.20;100.00;100020.84;5024609;28;20033;-70
2023/01/08 03:13:33;;;;;;;8.82;1.58;;;;;;;8.20;100.00;100021.72;5031169;28;20022;-70
2023/01/08 03:16:04;;;;;;;5.55;0.95;;;;;;;8.20;100.00;100019.09;5049666;28;20035;-70
2023/01/08 03:18:36;;;;;;;8.70;1.38;;;;;;;8.19;100.00;100019.09;5033505;28;20362;-70
2023/01/08 03:21:04;;;;;;;9.82;1.67;;;;;;;8.17;100.00;100015.59;5032033;28;20369;-70
2023/01/08 03:23:32;;;;;;;5.50;1.55;;;;;;;8.18;100.00;100022.56;5034674;28;20039;-69
2023/01/08 03:26:00;;;;;;;12.90;1.42;;;;;;;8.20;100.00;100020.84;5035445;28;20469;-70
2023/01/08 03:28:31;;;;;;;10.00;1.65;;;;;;;8.21;100.00;100009.53;5033941;28;20027;-69
2023/01/08 03:30:58;;;;;;;3.40;1.08;;;;;;;8.19;100.00;100008.59;5030967;28;20059;-71
2023/01/08 03:33:26;;;;;;;10.40;1.20;;;;;;;8.14;100.00;99999.78;5032457;28;20035;-70
2023/01/08 03:35:55;;;;;;;12.63;1.55;;;;;;;8.18;100.00;99992.00;5045211;28;20040;-71
2023/01/08 03:38:25;;;;;;;6.32;1.27;;;;;;;8.14;100.00;99989.31;5029677;28;20028;-69
2023/01/08 03:40:56;;;;;;;12.38;1.65;;;;;;;8.09;100.00;99997.13;5033492;28;20063;-71
2023/01/08 03:43:21;;;;;;;11.18;1.20;;;;;;;8.13;100.00;100003.31;5030047;28;20025;-70
2023/01/08 03:45:53;;;;;;;11.75;2.20;;;;;;;8.08;100.00;99998.88;5051633;28;20362;-71
2023/01/08 03:48:20;;;;;;;8.45;1.75;;;;;;;7.96;100.00;99992.59;5032328;28;20063;-69
2023/01/08 03:50:46;;;;;;;7.90;1.58;;;;;;;7.86;100.00;99999.44;5035663;28;20051;-70
2023/01/08 03:53:11;;;;;;;8.05;1.15;;;;;;;7.84;100.00;100003.78;5038752;28;20469;-70
2023/01/08 03:55:36;;;;;;;9.05;1.42;;;;;;;7.82;100.00;100009.00;5033979;28;20116;-70
2023/01/08 03:58:02;;;;;;;10.65;1.38;;;;;;;7.78;100.00;100011.56;5031828;28;20022;-70
2023/01/08 04:00:27;;;;;;;11.68;1.17;;;;;;;7.73;100.00;100014.09;5031050;28;20057;-71
2023/01/08 04:02:52;;;;;;;13.52;1.83;;;;;;;7.72;100.00;100007.97;5030811;28;20022;-70
2023/01/08 04:05:18;;;;;;;9.82;1.20;;;;;;;7.69;100.00;100007.03;5044788;28;20416;-69
2023/01/08 04:07:43;;;;;;;19.10;1.70;;;;;;;7.60;100.00;100002.56;5052262;28;20112;-69
2023/01/08 04:10:08;;;;;;;9.00;1.50;;;;;;;7.57;100.00;99992.94;5034296;28;20028;-70
2023/01/08 04:12:34;;;;;;;13.15;1.88;;;;;;;7.54;100.00;99999.84;5031220;28;20044;-69
2023/01/08 04:14:59;;;;;;;8.43;1.00;;;;;;;7.56;100.00;99996.41;5032646;28;20366;-69
2023/01/08 04:17:24;;;;;;;14.25;2.03;;;;;;;7.54;100.00;100002.47;5033331;28;20060;-70
2023/01/08 04:19:50;;;;;;;6.68;1.65;;;;;;;7.47;100.00;100000.63;5033469;28;20021;-71
2023/01/08 04:22:15;;;;;;;8.95;1.42;;;;;;;7.43;100.00;100000.56;5032812;28;20025;-70
2023/01/08 04:24:40;;;;;;;8.15;1.48;;;;;;;7.39;100.00;100000.50;5033797;28;20033;-70
2023/01/08 04:27:06;;;;;;;5.00;1.20;;;;;;;7.38;100.00;99989.16;5032458;28;20168;-70
2023/01/08 04:29:31;;;;;;;10.27;1.42;;;;;;;7.38;100.00;99983.00;5022136;28;20053;-70
2023/01/08 04:31:56;;;;;;;10.27;2.00;;;;;;;7.37;100.00;99984.75;5030652;28;20103;-70
2023/01/08 04:34:22;;;;;;;12.25;2.42;;;;;;;7.38;100.00;99990.88;5035871;28;20112;-70
2023/01/08 04:36:47;;;;;;;9.35;1.52;;;;;;;7.41;100.00;99986.56;5034889;28;20133;-70
2023/01/08 04:39:13;;;;;;;9.70;1.40;;;;;;;7.41;100.00;99989.19;5037323;28;20442;-70
2023/01/08 04:41:38;;;;;;;7.47;1.50;;;;;;;7.40;100.00;99984.81;5030263;28;20017;-69
2023/01/08 04:44:03;;;;;;;9.43;1.30;;;;;;;7.36;100.00;99980.38;5033455;28;20444;-70
2023/01/08 04:46:29;;;;;;;9.02;1.17;;;;;;;7.36;100.00;99977.75;5038390;28;20026;-70
2023/01/08 04:48:54;;;;;;;6.38;1.52;;;;;;;7.35;100.00;99972.50;5064095;28;20025;-70
2023/01/08 04:51:20;;;;;;;4.32;1.13;;;;;;;7.37;100.00;99974.28;5041929;28;20022;-69
2023/01/08 04:53:46;;;;;;;8.88;1.20;;;;;;;7.35;100.00;99970.78;5032793;28;20025;-69
2023/01/08 04:56:11;;;;;;;7.10;1.02;;;;;;;7.37;100.00;99978.66;5034805;28;20040;-69
2023/01/08 04:58:38;;;;;;;8.80;1.77;;;;;;;7.35;100.00;99976.03;5028504;28;20064;-71
2023/01/08 05:01:21;;;;;;;4.22;1.30;;;;;;;7.35;100.00;99969.88;5030864;28;20040;-70
2023/01/08 05:03:46;;;;;;;7.20;2.03;;;;;;;7.32;100.00;99968.09;5032531;28;20021;-69
2023/01/08 05:06:12;;;;;;;6.28;1.40;;;;;;;7.28;100.00;99968.03;5041497;28;20515;-72
2023/01/08 05:08:37;;;;;;;4.40;1.17;;;;;;;7.29;100.00;99970.69;5032635;28;20029;-69
2023/01/08 05:11:03;;;;;;;4.13;1.60;;;;;;;7.23;100.00;99970.56;5034838;28;20022;-72
2023/01/08 05:13:28;;;;;;;9.90;2.08;;;;;;;7.23;100.00;99965.34;5030978;28;20056;-70
2023/01/08 05:15:57;;;;;;;11.25;1.75;;;;;;;7.21;100.00;99965.31;5032014;28;20025;-69
2023/01/08 05:18:22;;;;;;;7.57;1.95;;;;;;;7.24;100.00;99956.63;5029743;28;20034;-69
2023/01/08 05:20:48;;;;;;;7.68;1.80;;;;;;;7.31;100.00;99962.84;5036411;28;20087;-70
2023/01/08 05:23:13;;;;;;;12.48;2.08;;;;;;;7.32;100.00;99962.88;5030551;28;20075;-70
2023/01/08 05:25:38;;;;;;;16.85;1.80;;;;;;;7.26;100.00;99957.56;5032457;28;20068;-69
2023/01/08 05:28:04;;;;;;;10.68;1.50;;;;;;;7.27;100.00;99961.94;5033929;28;20029;-70
2023/01/08 05:30:29;;;;;;;9.15;1.83;;;;;;;7.28;100.00;99968.91;5029279;28;20034;-70
2023/01/08 05:32:54;;;;;;;11.75;1.65;;;;;;;7.30;100.00;99968.94;5030086;28;20025;-69
2023/01/08 05:35:20;;;;;;;8.45;2.00;;;;;;;7.29;100.00;99965.44;5033916;28;20501;-69
2023/01/08 05:37:45;;;;;;;4.00;1.20;;;;;;;7.31;100.00;99963.75;5052120;28;20536;-71
2023/01/08 05:40:11;;;;;;;8.85;1.75;;;;;;;7.29;100.00;99952.38;5035449;28;20025;-70
2023/01/08 05:42:36;;;;;;;3.10;1.67;;;;;;;7.23;100.00;99960.09;5033638;28;20032;-70
2023/01/08 05:45:03;;;;;;;10.63;1.90;;;;;;;7.22;100.00;99964.47;5030993;28;20025;-70
2023/01/08 05:47:30;;;;;;;6.85;1.92;;;;;;;7.23;100.00;99954.88;5031561;28;20029;-70
2023/01/08 05:49:55;;;;;;;9.23;1.98;;;;;;;7.25;100.00;99961.03;5030605;28;20394;-69
2023/01/08 05:52:21;;;;;;;13.18;1.70;;;;;;;7.24;100.00;99962.78;5035607;28;20026;-69
2023/01/08 05:54:46;;;;;;;9.50;1.33;;;;;;;7.22;100.00;99964.47;5030608;28;20036;-69
2023/01/08 05:57:11;;;;;;;7.82;1.88;;;;;;;7.26;100.00;99966.28;5031213;28;20049;-70
2023/01/08 05:59:36;;;;;;;13.38;1.63;;;;;;;7.26;100.00;99974.13;5030293;28;20547;-69
2023/01/08 06:02:02;;;;;;;9.25;1.40;;;;;;;7.23;100.00;99983.66;5031802;28;20025;-70
2023/01/08 06:04:27;;;;;;;7.38;1.63;;;;;;;7.23;100.00;99967.94;5030448;28;20033;-69
2023/01/08 06:06:52;;;;;;;8.48;1.52;;;;;;;7.20;100.00;99965.28;5029598;28;20025;-68
2023/01/08 06:09:18;;;;;;;8.07;1.40;;;;;;;7.14;100.00;99967.84;5029108;28;20026;-70
2023/01/08 06:11:44;;;;;;;7.60;1.50;;;;;;;7.09;100.00;99975.59;5031766;28;20025;-70
2023/01/08 06:14:10;;;;;;;8.50;1.58;;;;;;;7.05;100.00;99981.63;5029006;28;20040;-69
2023/01/08 06:16:36;;;;;;;7.28;2.28;;;;;;;7.04;100.00;99980.75;5026784;28;20029;-69
2023/01/08 06:19:01;;;;;;;9.45;1.88;;;;;;;7.01;100.00;99977.19;5030690;28;20140;-70
2023/01/08 06:21:26;;;;;;;13.13;1.60;;;;;;;7.00;100.00;99973.72;5030801;28;20033;-70
2023/01/08 06:23:52;;;;;;;10.82;1.70;;;;;;;6.96;100.00;99973.63;5030732;28;20104;-71
2023/01/08 06:26:17;;;;;;;10.98;1.98;;;;;;;6.92;100.00;99964.84;5029327;28;20125;-69
2023/01/08 06:28:42;;;;;;;11.90;2.05;;;;;;;6.90;100.00;99961.31;5029179;28;20018;-69
2023/01/08 06:31:07;;;;;;;10.77;1.73;;;;;;;6.87;100.00;99959.53;5030147;28;20072;-70
2023/01/08 06:33:33;;;;;;;12.15;1.95;;;;;;;6.88;100.00;99965.66;5031485;28;20037;-70
2023/01/08 06:36:01;;;;;;;5.70;1.42;;;;;;;6.92;100.00;99959.63;5030600;28;20599;-70
2023/01/08 06:38:26;;;;;;;11.27;1.80;;;;;;;6.91;100.00;99947.41;5029921;28;20030;-70
2023/01/08 06:40:51;;;;;;;10.75;1.67;;;;;;;6.91;100.00;99956.09;5031036;28;20029;-70
2023/01/08 06:43:17;;;;;;;12.18;2.00;;;;;;;6.91;100.00;99969.19;5028816;28;20087;-69
2023/01/08 06:45:42;;;;;;;11.60;2.10;;;;;;;6.89;100.00;99954.31;5025309;28;20380;-70
2023/01/08 06:48:08;;;;;;;9.40;3.35;;;;;;;6.90;100.00;99957.00;5023903;28;20032;-70
2023/01/08 06:50:34;;;;;;;12.88;2.00;;;;;;;6.87;100.00;99953.44;5030893;28;20048;-71
2023/01/08 06:53:00;;;;;;;6.88;1.27;;;;;;;6.88;100.00;99955.19;5033183;28;20104;-70
2023/01/08 06:55:25;;;;;;;10.90;1.90;;;;;;;6.88;100.00;99953.44;5030539;28;20025;-71
2023/01/08 06:57:54;;;;;;;14.75;1.95;;;;;;;6.87;100.00;99946.44;5033518;28;20120;-70
2023/01/08 07:00:22;;;;;;;3.33;1.38;;;;;;;6.88;100.00;99952.59;5032486;28;20420;-70
2023/01/08 07:02:47;;;;;;;12.13;1.58;;;;;;;6.83;100.00;99956.84;5032143;28;20413;-69
2023/01/08 07:05:13;;;;;;;12.50;2.45;;;;;;;6.85;100.00;99953.41;5034055;28;20039;-69
2023/01/08 07:07:38;;;;;;;10.00;1.25;;;;;;;6.88;100.00;99955.19;5046222;28;20024;-70
2023/01/08 07:10:04;;;;;;;6.10;1.50;;;;;;;6.86;100.00;99944.72;5029747;28;20025;-71
2023/01/08 07:12:29;;;;;;;8.38;1.88;;;;;;;6.83;100.00;99935.94;5030585;28;20024;-71
2023/01/08 07:14:55;;;;;;;8.93;1.42;;;;;;;6.81;100.00;99938.53;5028073;28;20025;-70
2023/01/08 07:17:20;;;;;;;7.35;1.73;;;;;;;6.80;100.00;99955.06;5030639;28;20021;-70
2023/01/08 07:19:45;;;;;;;9.57;1.65;;;;;;;6.77;100.00;99943.66;5030758;28;20031;-69
2023/01/08 07:22:10;;;;;;;14.50;1.45;;;;;;;6.74;100.00;99945.38;5029024;28;20056;-70
2023/01/08 07:24:36;;;;;;;7.40;1.25;;;;;;;6.71;100.00;99953.13;5026291;28;20112;-70
2023/01/08 07:27:01;;;;;;;14.77;1.52;;;;;;;6.68;100.00;99949.63;5024216;28;20029;-70
2023/01/08 07:29:26;;;;;;;8.45;1.50;;;;;;;6.67;100.00;99948.72;5024477;28;20037;-71
2023/01/08 07:31:52;;;;;;;10.23;1.23;;;;;;;6.65;100.00;99945.22;5027260;28;20029;-69
2023/01/08 07:34:17;;;;;;;7.90;1.55;;;;;;;6.59;100.00;99947.69;5027452;28;20024;-69
2023/01/08 07:36:43;;;;;;;11.07;1.70;;;;;;;6.58;100.00;99932.88;5031877;28;20021;-70
2023/01/08 07:39:08;;;;;;;10.45;1.33;;;;;;;6.58;100.00;99932.88;5032471;28;20505;-70
2023/01/08 07:41:34;;;;;;;6.20;1.38;;;;;;;6.55;100.00;99932.81;5028548;28;20064;-70
2023/01/08 07:43:59;;;;;;;10.50;1.50;;;;;;;6.53;100.00;99934.53;5033420;28;21027;-69
2023/01/08 07:46:24;;;;;;;9.43;1.65;;;;;;;6.50;100.00;99934.50;5035042;28;20124;-70
2023/01/08 07:48:50;;;;;;;7.22;1.73;;;;;;;6.49;100.00;99946.66;5033314;28;20024;-69
2023/01/08 07:51:15;;;;;;;4.22;0.85;;;;;;;6.49;100.00;99935.34;5033941;28;20120;-71
2023/01/08 07:53:40;;;;;;;7.05;1.10;;;;;;;6.56;100.00;99939.81;5032989;28;20532;-70
2023/01/08 07:56:08;;;;;;;15.07;1.70;;;;;;;6.52;100.00;99932.75;5034687;28;20474;-70
2023/01/08 07:58:34;;;;;;;4.68;0.82;;;;;;;6.49;100.00;99936.19;5030228;28;20037;-68
2023/01/08 08:01:00;;;;;;;7.20;1.48;;;;;;;6.53;100.00;99939.75;5031886;28;20025;-70
2023/01/08 08:03:26;;;;;;;10.35;1.75;;;;;;;6.53;100.00;99935.41;5033251;28;20481;-69
2023/01/08 08:05:52;;;;;;;13.48;1.85;;;;;;;6.53;100.00;99950.22;5034165;28;20033;-70
2023/01/08 08:08:18;;;;;;;12.15;1.38;;;;;;;6.53;100.00;99934.53;5030339;28;20060;-70
2023/01/08 08:10:44;;;;;;;11.55;1.80;;;;;;;6.54;100.00;99921.50;5031790;28;20857;-70
2023/01/08 08:13:10;;;;;;;11.88;2.10;;;;;;;6.48;100.00;99925.72;5030256;28;20105;-70
2023/01/08 08:15:36;;;;;;;7.65;1.80;;;;;;;6.52;100.00;99923.19;5035044;28;20174;-69
2023/01/08 08:18:02;;;;;;;8.68;1.10;;;;;;;6.50;100.00;99910.97;5031851;28;20032;-69
2023/01/08 08:20:28;;;;;;;9.23;1.13;;;;;;;6.56;100.00;99918.91;5031976;28;20112;-71
2023/01/08 08:23:02;;;;;;;14.13;1.30;;;;;;;6.56;100.00;99918.91;5031602;28;20025;-72
2023/01/08 08:25:27;;;;;;;11.63;1.42;;;;;;;6.55;100.00;99917.13;5024438;28;20038;-72
2023/01/08 08:27:58;;;;;;;13.98;1.50;;;;;;;6.58;100.00;99911.97;5033907;28;20078;-71
2023/01/08 08:30:25;;;;;;;15.77;2.20;;;;;;;6.58;100.00;99914.59;5031483;28;20054;-71
2023/01/08 08:32:51;;;;;;;13.13;1.55;;;;;;;6.56;100.00;99911.06;5031506;28;20378;-71
2023/01/08 08:35:16;;;;;;;10.95;1.60;;;;;;;6.54;100.00;99915.41;5030236;28;20055;-71
2023/01/08 08:37:42;;;;;;;8.13;1.75;;;;;;;6.56;100.00;99903.22;5031795;28;20029;-71
2023/01/08 08:40:08;;;;;;;15.82;1.77;;;;;;;6.57;100.00;99894.53;5030740;28;20049;-71
2023/01/08 08:42:33;;;;;;;8.15;1.38;;;;;;;6.55;100.00;99896.22;5065525;28;20067;-72
2023/01/08 08:44:59;;;;;;;5.35;1.40;;;;;;;6.60;100.00;99894.56;5033156;28;20056;-70
2023/01/08 08:47:24;;;;;;;9.85;1.48;;;;;;;6.64;100.00;99904.22;5033876;28;20495;-72
2023/01/08 08:49:49;;;;;;;15.38;1.67;;;;;;;6.69;100.00;99905.19;5031334;28;20442;-71
2023/01/08 08:52:15;;;;;;;11.32;3.03;;;;;;;6.74;100.00;99907.88;5034951;28;20075;-71
2023/01/08 08:54:40;;;;;;;4.70;1.10;;;;;;;6.77;100.00;99893.97;5032089;28;20029;-71
2023/01/08 08:57:08;;;;;;;7.18;1.55;;;;;;;6.80;100.00;99896.66;5029954;28;20045;-71
2023/01/08 08:59:33;;;;;;;9.55;2.10;;;;;;;6.80;100.00;99897.53;5031508;28;20033;-72
2023/01/08 09:01:59;;;;;;;10.90;1.60;;;;;;;6.81;100.00;99895.78;5034130;28;20386;-71
2023/01/08 09:04:24;;;;;;;13.43;2.00;;;;;;;6.88;100.00;99881.97;5031525;28;20032;-71
2023/01/08 09:06:49;;;;;;;10.25;1.52;;;;;;;6.91;100.00;99895.09;5031095;28;20036;-71
2023/01/08 09:09:15;;;;;;;10.90;1.70;;;;;;;6.92;100.00;99887.25;5032646;28;20025;-72
2023/01/08 09:11:40;;;;;;;7.40;1.45;;;;;;;6.95;100.00;99875.97;5030912;28;21107;-71
2023/01/08 09:14:05;;;;;;;8.07;1.40;;;;;;;7.02;100.00;99883.06;5032319;28;20048;-73
2023/01/08 09:16:31;;;;;;;6.85;1.40;;;;;;;7.05;100.00;99883.13;5033293;28;20469;-71
2023/01/08 09:18:57;;;;;;;13.48;2.03;;;;;;;7.08;100.00;99872.69;5032983;28;20028;-71
2023/01/08 09:21:23;;;;;;;8.02;1.70;;;;;;;7.13;100.00;99871.88;5026990;28;20030;-67
2023/01/08 09:23:48;;;;;;;12.98;1.45;;;;;;;7.15;100.00;99872.78;5039582;28;20034;-68
2023/01/08 09:26:14;;;;;;;10.15;2.08;;;;;;;7.23;100.00;99871.13;5034505;28;20025;-69
2023/01/08 09:28:39;;;;;;;9.75;1.67;;;;;;;7.24;100.00;99870.28;5032622;28;20140;-67
2023/01/08 09:31:04;;;;;;;11.63;1.70;;;;;;;7.29;100.00;99873.84;5031949;28;20018;-68
2023/01/08 09:33:30;;;;;;;12.80;1.83;;;;;;;7.35;100.00;99879.19;5033137;28;20033;-68
2023/01/08 09:35:56;;;;;;;7.13;1.30;;;;;;;7.40;100.00;99880.09;5031736;28;20021;-70
2023/01/08 09:38:21;;;;;;;11.68;1.63;;;;;;;7.47;100.00;99872.34;5032375;28;20481;-69
2023/01/08 09:40:55;;;;;;;13.73;1.50;;;;;;;7.53;100.00;99877.69;5032585;28;20037;-70
2023/01/08 09:43:23;;;;;;;5.32;1.55;;;;;;;7.59;100.00;99877.75;5031354;28;20083;-70
2023/01/08 09:45:53;;;;;;;8.45;1.33;;;;;;;7.69;100.00;99871.78;5033074;28;20114;-69
2023/01/08 09:48:24;;;;;;;10.35;1.77;;;;;;;7.80;100.00;99868.41;5035790;28;20156;-69
2023/01/08 09:50:50;;;;;;;7.93;1.90;;;;;;;7.99;100.00;99874.72;5041086;28;20532;-69
2023/01/08 09:53:17;;;;;;;8.02;1.58;;;;;;;8.03;100.00;99872.19;5030754;28;20107;-69
2023/01/08 09:55:43;;;;;;;14.98;1.77;;;;;;;8.20;100.00;99879.34;5032156;28;20021;-68
2023/01/08 09:58:27;;;;;;;6.03;1.30;;;;;;;8.41;100.00;99866.44;5030327;28;20568;-68
2023/01/08 10:00:53;;;;;;;8.45;1.75;;;;;;;8.38;100.00;99876.03;5031539;28;20087;-69
2023/01/08 10:03:21;;;;;;;8.60;1.63;;;;;;;8.37;100.00;99872.53;5029868;28;20112;-69
2023/01/08 10:05:47;;;;;;;10.07;1.45;;;;;;;8.52;100.00;99860.44;5028861;28;20106;-71
2023/01/08 10:08:13;;;;;;;10.38;1.25;;;;;;;8.67;100.00;99857.06;5026732;28;20060;-69
2023/01/08 10:10:40;;;;;;;8.32;1.42;;;;;;;8.71;100.00;99856.28;5032368;28;20040;-68
2023/01/08 10:13:08;;;;;;;9.93;1.60;;;;;;;8.70;100.00;99865.88;5032815;28;20171;-70
2023/01/08 10:15:34;;;;;;;10.52;1.90;;;;;;;8.83;100.00;99872.09;5031443;28;20453;-72
2023/01/08 10:18:06;;;;;;;11.18;1.75;;;;;;;8.68;100.00;99859.75;5045457;28;20095;-69
2023/01/08 10:20:32;;;;;;;11.10;1.70;;;;;;;8.76;100.00;99859.78;5032015;28;20064;-69
2023/01/08 10:23:15;;;;;;;12.73;1.73;;;;;;;8.81;100.00;99858.06;5031260;28;20453;-69
2023/01/08 10:25:52;;;;;;;7.10;1.80;;;;;;;9.02;100.00;99857.38;5030523;28;20033;-71
2023/01/08 10:28:25;;;;;;;15.63;1.67;;;;;;;9.19;100.00;99857.47;5030829;28;20029;-70
2023/01/08 10:30:51;;;;;;;;;;;;;;;9.35;100.00;99840.06;5030863;28;20021;-69
2023/01/08 10:33:25;;;;;;;7.82;1.55;;;;;;;9.45;100.00;99847.13;5031018;28;19913;-69
2023/01/08 10:35:59;;;;;;;6.80;1.65;;;;;;;9.41;100.00;99852.34;5031112;28;20025;-69
2023/01/08 10:38:31;;;;;;;8.05;1.85;;;;;;;9.40;100.00;99854.09;5032419;28;20036;-68
2023/01/08 10:40:59;;;;;;;10.35;1.40;;;;;;;9.21;100.00;99847.88;5028096;28;20033;-69
2023/01/08 10:43:28;;;;;;;8.63;1.27;;;;;;;9.48;100.00;99835.72;5029878;28;20528;-68
2023/01/08 10:46:20;;;;;;;9.07;1.75;;;;;;;9.76;100.00;99826.22;5031182;28;20096;-68
2023/01/08 10:48:51;;;;;;;9.45;1.75;;;;;;;9.87;100.00;99828.00;5029268;28;20470;-68
2023/01/08 10:51:25;;;;;;;5.55;1.27;;;;;;;9.91;100.00;99828.00;5029950;28;20030;-69
2023/01/08 10:53:55;;;;;;;3.40;1.00;;;;;;;9.97;100.00;99829.81;5030799;28;20044;-70
2023/01/08 10:56:25;;;;;;;7.80;1.13;;;;;;;9.96;100.00;99817.53;5046842;28;20399;-70
2023/01/08 10:58:52;;;;;;;7.85;1.38;;;;;;;10.28;100.00;99819.31;5026394;28;20053;-68
2023/01/08 11:01:23;;;;;;;10.75;1.67;;;;;;;10.05;100.00;99822.81;5029704;28;20269;-69
2023/01/08 11:03:51;;;;;;;11.30;2.20;;;;;;;9.84;100.00;99813.13;5047834;28;20841;-70
2023/01/08 11:06:21;;;;;;;9.73;1.50;;;;;;;9.78;100.00;99807.88;5031833;28;20029;-68
2023/01/08 11:08:55;;;;;;;8.55;1.92;;;;;;;9.90;100.00;99809.63;5030987;28;20138;-68
2023/01/08 11:11:21;;;;;;;8.43;1.73;;;;;;;10.08;100.00;99807.03;5031347;28;20130;-69
2023/01/08 11:13:56;;;;;;;5.93;1.48;;;;;;;10.46;100.00;99803.59;5033469;28;20027;-69
2023/01/08 11:16:29;;;;;;;4.28;1.13;;;;;;;10.38;100.00;99802.72;5034749;28;20041;-71
2023/01/08 11:18:55;;;;;;;3.63;1.05;;;;;;;10.23;100.00;99800.94;5041624;28;20116;-68
2023/01/08 11:21:26;;;;;;;11.75;2.05;;;;;;;10.50;100.00;99793.06;5040559;28;20576;-67
2023/01/08 11:24:00;;;;;;;3.47;1.65;;;;;;;10.39;100.00;99801.88;5036152;28;20025;-68
2023/01/08 11:26:27;;;;;;;4.68;1.08;;;;;;;10.11;100.00;99791.28;5039867;28;20025;-67
2023/01/08 11:29:01;;;;;;;7.55;1.38;;;;;;;10.01;100.00;99792.16;5034196;28;20021;-69